createdAt,value
2019-04-26T00:05:01.227Z,99726.97
2019-04-26T00:10:10.349Z,99723.94
2019-04-26T00:15:27.813Z,99721.70
2019-04-26T00:20:31.654Z,99726.09
2019-04-26T00:25:35.232Z,99723.10
2019-04-26T00:30:38.815Z,99711.69
2019-04-26T00:35:47.725Z,99705.98
2019-04-26T00:40:47.771Z,99707.34
2019-04-26T00:45:51.669Z,99706.02
2019-04-26T00:50:55.245Z,99702.52
2019-04-26T00:55:59.413Z,99703.84
2019-04-26T01:01:03.376Z,99693.73
2019-04-26T01:06:08.508Z,99688.08
2019-04-26T01:11:12.071Z,99681.94
2019-04-26T01:16:15.875Z,99687.64
2019-04-26T01:21:20.645Z,99679.33
2019-04-26T01:26:34.842Z,99665.74
2019-04-26T01:31:44.197Z,99660.49
2019-04-26T01:36:47.759Z,99646.03
2019-04-26T01:42:08.230Z,99645.16
2019-04-26T01:47:11.887Z,99646.48
2019-04-26T01:52:15.576Z,99641.66
2019-04-26T01:57:19.132Z,99643.48
2019-04-26T02:02:27.795Z,99646.55
2019-04-26T02:07:39.377Z,99634.68
2019-04-26T02:12:44.327Z,99625.90
2019-04-26T02:17:48.627Z,99626.34
2019-04-26T02:22:59.376Z,99631.20
2019-04-26T02:28:02.927Z,99628.59
2019-04-26T02:33:06.545Z,99621.11
2019-04-26T02:38:10.104Z,99611.87
2019-04-26T02:43:13.681Z,99605.33
2019-04-26T02:48:19.006Z,99600.92
2019-04-26T02:53:51.653Z,99610.61
2019-04-26T02:59:01.349Z,99602.27
2019-04-26T03:04:04.910Z,99601.81
2019-04-26T03:09:08.519Z,99599.61
2019-04-26T03:14:13.700Z,99599.64
2019-04-26T03:19:43.172Z,99605.34
2019-04-26T03:25:08.863Z,99611.48
2019-04-26T03:30:33.398Z,99600.08
2019-04-26T03:35:57.063Z,99587.81
2019-04-26T03:41:02.810Z,99590.88
2019-04-26T03:46:21.288Z,99598.34
2019-04-26T03:51:50.690Z,99593.49
2019-04-26T03:57:16.568Z,99590.40
2019-04-26T04:02:24.847Z,99593.00
2019-04-26T04:07:36.701Z,99596.05
2019-04-26T04:12:46.321Z,99591.28
2019-04-26T04:17:59.032Z,99592.05
2019-04-26T04:23:20.842Z,99589.84
2019-04-26T04:28:49.881Z,99605.53
2019-04-26T04:34:14.865Z,99604.20
2019-04-26T04:39:40.876Z,99593.32
2019-04-26T04:45:12.446Z,99589.86
2019-04-26T04:50:20.944Z,99595.02
2019-04-26T04:55:30.638Z,99594.14
2019-04-26T05:00:56.077Z,99588.44
2019-04-26T05:06:07.723Z,99581.85
2019-04-26T05:11:14.864Z,99581.30
2019-04-26T05:16:56.626Z,99583.19
2019-04-26T05:22:03.313Z,99565.78
2019-04-26T05:27:17.536Z,99570.84
2019-04-26T05:32:30.279Z,99568.59
2019-04-26T05:37:53.102Z,99572.64
2019-04-26T05:43:18.168Z,99555.80
2019-04-26T05:49:04.124Z,99566.54
2019-04-26T05:54:37.781Z,99572.75
2019-04-26T05:59:56.765Z,99572.98
2019-04-26T06:05:25.920Z,99578.02
2019-04-26T06:10:31.553Z,99577.26
2019-04-26T06:16:16.384Z,99575.14
2019-04-26T06:21:28.978Z,99567.31
2019-04-26T06:26:52.951Z,99562.06
2019-04-26T06:32:05.953Z,99556.26
2019-04-26T06:37:16.903Z,99542.27
2019-04-26T06:42:26.328Z,99542.44
2019-04-26T06:47:43.363Z,99526.69
2019-04-26T06:52:53.116Z,99522.78
2019-04-26T06:58:22.455Z,99538.21
2019-04-26T07:03:51.802Z,99524.41
2019-04-26T07:09:02.325Z,99524.17
2019-04-26T07:14:26.783Z,99520.52
2019-04-26T07:19:51.328Z,99512.87
2019-04-26T07:25:22.281Z,99515.47
2019-04-26T07:30:34.807Z,99519.09
2019-04-26T07:35:41.493Z,99505.16
2019-04-26T07:40:52.693Z,99497.70
2019-04-26T07:46:19.141Z,99482.11
2019-04-26T07:51:43.241Z,99484.14
2019-04-26T07:57:06.691Z,99480.39
2019-04-26T08:02:48.399Z,99481.58
2019-04-26T08:07:58.562Z,99468.73
2019-04-26T08:13:15.151Z,99466.58
2019-04-26T08:18:25.505Z,99468.52
2019-04-26T08:23:41.045Z,99466.09
2019-04-26T08:28:36.089Z,99467.27
2019-04-26T08:33:48.739Z,99479.64
2019-04-26T08:38:52.617Z,99457.43
2019-04-26T08:43:59.807Z,99454.86
2019-04-26T08:49:19.768Z,99461.67
2019-04-26T08:54:24.891Z,99460.08
2019-04-26T08:59:31.137Z,99458.72
2019-04-26T09:04:36.254Z,99455.42
2019-04-26T09:09:39.975Z,99452.73
2019-04-26T09:14:46.637Z,99455.56
2019-04-26T09:19:50.223Z,99444.99
2019-04-26T09:24:59.294Z,99448.14
2019-04-26T09:30:14.236Z,99446.34
2019-04-26T09:35:17.830Z,99456.42
2019-04-26T09:40:22.795Z,99429.89
2019-04-26T09:45:37.251Z,99437.34
2019-04-26T09:50:42.402Z,99429.30
2019-04-26T09:55:45.982Z,99429.63
2019-04-26T10:00:50.209Z,99433.88
2019-04-26T10:05:55.939Z,99428.02
2019-04-26T10:10:59.369Z,99425.14
2019-04-26T10:16:04.557Z,99418.47
2019-04-26T10:21:08.107Z,99417.88
2019-04-26T10:26:11.930Z,99420.66
2019-04-26T10:31:17.275Z,99417.34
2019-04-26T10:36:20.768Z,99422.25
2019-04-26T10:41:24.355Z,99410.05
2019-04-26T10:46:29.307Z,99410.06
2019-04-26T10:51:38.700Z,99410.65
2019-04-26T10:56:41.609Z,99411.58
2019-04-26T11:01:45.276Z,99410.12
2019-04-26T11:06:48.838Z,99402.20
2019-04-26T11:11:52.521Z,99402.27
2019-04-26T11:16:56.089Z,99406.94
2019-04-26T11:21:59.693Z,99396.69
2019-04-26T11:27:05.392Z,99388.50
2019-04-26T11:32:08.529Z,99381.52
2019-04-26T11:37:13.448Z,99372.36
2019-04-26T11:42:17.397Z,99369.39
2019-04-26T11:47:22.882Z,99370.65
2019-04-26T11:52:27.681Z,99371.92
2019-04-26T11:57:31.347Z,99360.90
2019-04-26T12:02:36.496Z,99351.58
2019-04-26T12:07:44.433Z,99348.22
2019-04-26T12:12:51.715Z,99341.77
2019-04-26T12:17:58.720Z,99333.47
2019-04-26T12:22:59.166Z,99327.18
2019-04-26T12:28:06.120Z,99327.59
2019-04-26T12:33:08.030Z,99328.73
2019-04-26T12:38:12.121Z,99320.49
2019-04-26T12:43:15.890Z,99319.36
2019-04-26T12:53:34.977Z,99313.70
2019-04-26T12:58:38.581Z,99309.02
2019-04-26T13:03:43.706Z,99307.09
2019-04-26T13:08:51.391Z,99306.86
2019-04-26T13:14:00.147Z,99287.63
2019-04-26T13:19:03.695Z,99284.45
2019-04-26T13:24:08.037Z,99275.86
2019-04-26T13:29:11.588Z,99280.43
2019-04-26T13:34:15.223Z,99276.55
2019-04-26T13:39:22.369Z,99268.45
2019-04-26T13:44:41.872Z,99255.89
2019-04-26T13:49:48.270Z,99261.52
2019-04-26T13:54:55.447Z,99254.70
2019-04-26T13:59:57.287Z,99253.44
2019-04-26T14:05:00.831Z,99244.41
2019-04-26T14:10:06.306Z,99230.98
2019-04-26T14:15:10.215Z,99233.90
2019-04-26T14:20:13.927Z,99247.09
2019-04-26T14:25:26.947Z,99243.47
2019-04-26T14:30:30.343Z,99243.16
2019-04-26T14:35:33.945Z,99239.02
2019-04-26T14:40:39.219Z,99241.40
2019-04-26T14:45:55.351Z,99236.34
2019-04-26T14:50:48.845Z,99240.92
2019-04-26T14:55:54.703Z,99238.91
2019-04-26T15:01:00.930Z,99239.98
2019-04-26T15:06:20.566Z,99234.00
2019-04-26T15:11:24.056Z,99230.19
2019-04-26T15:16:27.644Z,99233.90
2019-04-26T15:21:34.167Z,99233.55
2019-04-26T15:26:36.544Z,99233.90
2019-04-26T15:31:40.171Z,99222.58
2019-04-26T15:36:47.906Z,99223.44
2019-04-26T15:42:07.224Z,99218.91
2019-04-26T15:47:15.406Z,99228.63
2019-04-26T15:52:18.994Z,99230.80
2019-04-26T15:57:24.404Z,99231.89
2019-04-26T16:02:27.919Z,99226.65
2019-04-26T16:07:34.229Z,99223.89
2019-04-26T16:12:36.832Z,99217.98
2019-04-26T16:17:41.257Z,99223.39
2019-04-26T16:22:45.171Z,99224.56
2019-04-26T16:27:50.315Z,99218.02
2019-04-26T16:32:59.912Z,99218.02
2019-04-26T16:38:22.923Z,99234.43
2019-04-26T16:43:37.034Z,99238.98
2019-04-26T16:48:32.098Z,99242.39
2019-04-26T16:53:45.877Z,99237.02
2019-04-26T16:58:44.994Z,99239.55
2019-04-26T17:03:48.147Z,99238.34
2019-04-26T17:08:58.753Z,99232.16
2019-04-26T17:14:00.265Z,99238.20
2019-04-26T17:19:02.931Z,99239.33
2019-04-26T17:24:09.609Z,99238.84
2019-04-26T17:29:13.420Z,99244.53
2019-04-26T17:34:17.021Z,99247.33
2019-04-26T17:39:22.754Z,99253.80
2019-04-26T17:44:28.179Z,99253.53
2019-04-26T17:49:34.539Z,99256.69
2019-04-26T17:54:46.334Z,99259.13
2019-04-26T17:59:47.976Z,99264.91
2019-04-26T18:04:58.114Z,99265.07
2019-04-26T18:09:57.048Z,99274.38
2019-04-26T18:15:00.088Z,99283.11
2019-04-26T18:20:07.831Z,99281.69
2019-04-26T18:25:13.021Z,99291.29
2019-04-26T18:30:16.398Z,99295.14
2019-04-26T18:35:20.010Z,99300.13
2019-04-26T18:40:23.585Z,99303.39
2019-04-26T18:45:29.851Z,99302.30
2019-04-26T18:50:36.387Z,99300.04
2019-04-26T18:55:38.126Z,99306.64
2019-04-26T19:05:47.120Z,99317.48
2019-04-26T19:11:00.418Z,99318.41
2019-04-26T19:15:57.756Z,99321.47
2019-04-26T19:21:11.929Z,99320.60
2019-04-26T19:26:15.524Z,99313.73
2019-04-26T19:31:19.416Z,99314.94
2019-04-26T19:36:26.171Z,99314.19
2019-04-26T19:41:31.409Z,99310.30
2019-04-26T19:46:45.875Z,99305.20
2019-04-26T19:51:52.206Z,99306.59
2019-04-26T19:57:09.439Z,99302.48
2019-04-26T20:02:13.041Z,99293.45
2019-04-26T20:07:16.583Z,99285.48
2019-04-26T20:12:23.374Z,99280.44
2019-04-26T20:17:25.442Z,99279.48
2019-04-26T20:22:31.695Z,99281.48
2019-04-26T20:27:34.322Z,99282.47
2019-04-26T20:32:42.028Z,99274.67
2019-04-26T20:37:45.215Z,99286.42
2019-04-26T20:42:49.203Z,99288.72
2019-04-26T20:47:55.610Z,99291.63
2019-04-26T20:53:00.758Z,99289.89
2019-04-26T20:58:07.064Z,99286.62
2019-04-26T21:03:21.157Z,99284.81
2019-04-26T21:08:14.087Z,99292.45
2019-04-26T21:13:17.645Z,99308.45
2019-04-26T21:18:22.959Z,99305.82
2019-04-26T21:23:26.678Z,99342.27
2019-04-26T21:28:43.980Z,99362.01
2019-04-26T21:33:53.503Z,99382.35
2019-04-26T21:39:15.235Z,99405.80
2019-04-26T21:44:18.802Z,99397.67
2019-04-26T21:49:24.255Z,99401.48
2019-04-26T21:54:27.783Z,99401.48
2019-04-26T21:59:38.587Z,99415.48
2019-04-26T22:04:37.798Z,99432.86
2019-04-26T22:09:55.352Z,99441.96
2019-04-26T22:15:03.615Z,99441.96
2019-04-26T22:20:12.989Z,99450.18
2019-04-26T22:25:14.964Z,99460.73
2019-04-26T22:30:22.672Z,99473.69
2019-04-26T22:35:25.409Z,99476.25
2019-04-26T22:40:28.980Z,99477.89
2019-04-26T22:45:49.348Z,99494.84
2019-04-26T22:50:58.410Z,99500.13
2019-04-26T22:56:01.476Z,99517.77
2019-04-26T23:01:06.277Z,99523.41
2019-04-26T23:06:11.690Z,99522.13
2019-04-26T23:11:14.421Z,99528.45
2019-04-26T23:16:19.810Z,99518.41
2019-04-26T23:21:35.748Z,99530.78
2019-04-26T23:26:41.647Z,99533.20
2019-04-26T23:31:44.756Z,99552.37
2019-04-26T23:36:50.130Z,99576.00
2019-04-26T23:41:54.075Z,99587.67
2019-04-26T23:47:01.160Z,99602.55
2019-04-26T23:52:03.707Z,99581.61
2019-04-26T23:57:07.391Z,99577.19
